createdAt,value
2023-03-14T00:00:24.176Z,2.80
2023-03-14T00:02:56.861Z,3.60
2023-03-14T00:05:10.025Z,3.40
2023-03-14T00:07:25.349Z,3.30
2023-03-14T00:09:37.966Z,3.40
2023-03-14T00:11:50.501Z,3.70
2023-03-14T00:14:03.952Z,5.10
2023-03-14T00:16:16.923Z,8.00
2023-03-14T00:18:29.565Z,4.80
2023-03-14T00:20:42.111Z,4.00
2023-03-14T00:22:54.708Z,4.10
2023-03-14T00:25:09.222Z,4.80
2023-03-14T00:27:21.759Z,3.20
2023-03-14T00:29:34.330Z,4.70
2023-03-14T00:31:46.940Z,3.90
2023-03-14T00:33:59.516Z,3.40
2023-03-14T00:36:16.837Z,4.90
2023-03-14T00:38:30.637Z,3.60
2023-03-14T00:40:43.144Z,3.80
2023-03-14T00:42:55.809Z,5.00
2023-03-14T00:45:09.868Z,4.60
2023-03-14T00:47:22.425Z,4.60
2023-03-14T00:49:35.220Z,5.60
2023-03-14T00:51:47.756Z,3.10
2023-03-14T00:54:01.025Z,2.90
2023-03-14T00:56:13.986Z,2.90
2023-03-14T00:58:26.508Z,3.40
2023-03-14T01:00:40.166Z,3.50
2023-03-14T01:02:52.773Z,3.30
2023-03-14T01:05:05.631Z,3.60
2023-03-14T01:07:18.242Z,4.10
2023-03-14T01:09:30.845Z,3.10
2023-03-14T01:11:47.295Z,3.30
2023-03-14T01:14:00.164Z,11.20
2023-03-14T01:16:14.466Z,6.80
2023-03-14T01:18:27.092Z,4.70
2023-03-14T01:20:39.685Z,7.90
2023-03-14T01:22:52.341Z,8.30
2023-03-14T01:25:05.718Z,9.70
2023-03-14T01:27:18.300Z,9.30
2023-03-14T01:29:31.375Z,5.20
2023-03-14T01:31:43.962Z,11.60
2023-03-14T01:33:56.635Z,3.70
2023-03-14T01:36:10.414Z,3.50
2023-03-14T01:38:23.073Z,8.80
2023-03-14T01:40:43.083Z,8.50
2023-03-14T01:42:58.351Z,8.60
2023-03-14T01:45:48.736Z,17.70
2023-03-14T01:48:01.338Z,3.70
2023-03-14T01:50:13.881Z,3.70
2023-03-14T01:52:36.089Z,3.60
2023-03-14T01:54:56.604Z,3.00
2023-03-14T01:57:16.881Z,3.30
2023-03-14T01:59:32.623Z,3.30
2023-03-14T02:01:47.499Z,3.30
2023-03-14T02:04:03.583Z,3.30
2023-03-14T02:06:20.431Z,3.40
2023-03-14T02:08:34.366Z,3.60
2023-03-14T02:10:49.782Z,3.80
2023-03-14T02:13:04.587Z,3.70
2023-03-14T02:15:17.344Z,3.70
2023-03-14T02:17:30.089Z,3.80
2023-03-14T02:20:10.077Z,3.70
2023-03-14T02:22:22.987Z,3.40
2023-03-14T02:24:45.905Z,3.40
2023-03-14T02:27:07.745Z,3.40
2023-03-14T02:29:20.426Z,3.70
2023-03-14T02:31:34.279Z,3.50
2023-03-14T02:33:46.890Z,3.50
2023-03-14T02:36:02.484Z,3.70
2023-03-14T02:38:36.840Z,3.60
2023-03-14T02:40:49.557Z,3.40
2023-03-14T02:43:02.174Z,3.50
2023-03-14T02:45:14.825Z,3.60
2023-03-14T02:47:30.859Z,3.10
2023-03-14T02:49:43.705Z,3.30
2023-03-14T02:51:56.335Z,2.90
2023-03-14T02:54:09.049Z,3.00
2023-03-14T02:56:21.827Z,3.10
2023-03-14T02:58:34.675Z,3.00
2023-03-14T03:00:47.726Z,3.00
2023-03-14T03:03:00.681Z,3.20
2023-03-14T03:05:13.309Z,2.90
2023-03-14T03:07:26.129Z,3.20
2023-03-14T03:09:38.716Z,3.00
2023-03-14T03:11:51.445Z,3.20
2023-03-14T03:14:04.064Z,2.90
2023-03-14T03:16:16.917Z,3.10
2023-03-14T03:18:29.558Z,3.30
2023-03-14T03:20:42.207Z,2.80
2023-03-14T03:22:55.010Z,3.00
2023-03-14T03:25:09.107Z,3.00
2023-03-14T03:27:21.717Z,3.00
2023-03-14T03:29:34.341Z,3.00
2023-03-14T03:31:46.946Z,2.80
2023-03-14T03:33:59.497Z,3.00
2023-03-14T03:36:12.939Z,3.00
2023-03-14T03:38:25.566Z,3.20
2023-03-14T03:40:38.185Z,2.80
2023-03-14T03:42:50.876Z,2.90
2023-03-14T03:45:04.454Z,3.10
2023-03-14T03:47:16.988Z,2.90
2023-03-14T03:49:31.320Z,3.40
2023-03-14T03:51:43.851Z,2.90
2023-03-14T03:53:57.346Z,2.90
2023-03-14T03:56:10.362Z,2.80
2023-03-14T03:58:22.903Z,3.10
2023-03-14T04:00:35.589Z,2.80
2023-03-14T04:02:48.237Z,3.20
2023-03-14T04:05:01.456Z,3.20
2023-03-14T04:07:15.006Z,2.70
2023-03-14T04:09:27.537Z,3.00
2023-03-14T04:11:40.211Z,2.90
2023-03-14T04:13:53.050Z,2.80
2023-03-14T04:16:15.157Z,3.20
2023-03-14T04:18:28.204Z,3.20
2023-03-14T04:20:40.782Z,3.00
2023-03-14T04:22:53.353Z,2.80
2023-03-14T04:25:07.477Z,3.00
2023-03-14T04:27:20.195Z,3.10
2023-03-14T04:29:32.809Z,2.90
2023-03-14T04:31:45.463Z,3.60
2023-03-14T04:33:58.178Z,3.20
2023-03-14T04:36:10.844Z,2.90
2023-03-14T04:38:23.428Z,3.20
2023-03-14T04:40:38.550Z,3.50
2023-03-14T04:42:51.173Z,3.40
2023-03-14T04:45:04.249Z,3.40
2023-03-14T04:47:16.825Z,3.00
2023-03-14T04:49:29.456Z,3.60
2023-03-14T04:51:42.095Z,3.40
2023-03-14T04:53:55.537Z,3.00
2023-03-14T04:56:08.571Z,2.70
2023-03-14T04:58:22.108Z,3.50
2023-03-14T05:00:34.908Z,3.20
2023-03-14T05:02:47.544Z,3.70
2023-03-14T05:05:00.232Z,4.00
2023-03-14T05:07:13.968Z,4.10
2023-03-14T05:09:27.679Z,3.90
2023-03-14T05:11:40.274Z,3.80
2023-03-14T05:13:52.844Z,3.80
2023-03-14T05:16:08.397Z,3.80
2023-03-14T05:18:21.012Z,3.70
2023-03-14T05:20:33.604Z,3.40
2023-03-14T05:22:46.267Z,3.00
2023-03-14T05:25:00.037Z,3.20
2023-03-14T05:27:12.796Z,3.20
2023-03-14T05:29:25.826Z,3.10
2023-03-14T05:31:38.544Z,3.20
2023-03-14T05:33:51.318Z,2.90
2023-03-14T05:36:04.253Z,3.10
2023-03-14T05:38:16.886Z,2.90
2023-03-14T05:40:29.562Z,3.10
2023-03-14T05:42:42.175Z,3.50
2023-03-14T05:44:54.927Z,3.70
2023-03-14T05:47:07.617Z,3.70
2023-03-14T05:49:20.264Z,3.70
2023-03-14T05:51:32.829Z,3.90
2023-03-14T05:53:45.487Z,8.50
2023-03-14T05:55:58.432Z,4.10
2023-03-14T05:58:11.111Z,4.20
2023-03-14T06:00:24.241Z,4.40
2023-03-14T06:02:36.858Z,4.40
2023-03-14T06:04:49.523Z,8.50
2023-03-14T06:07:02.119Z,6.70
2023-03-14T06:09:14.694Z,10.80
2023-03-14T06:11:27.260Z,15.10
2023-03-14T06:13:39.830Z,4.90
2023-03-14T06:15:52.426Z,5.20
2023-03-14T06:18:05.036Z,4.20
2023-03-14T06:20:17.801Z,22.90
2023-03-14T06:22:30.416Z,9.10
2023-03-14T06:24:43.192Z,6.20
2023-03-14T06:26:55.772Z,7.10
2023-03-14T06:29:08.495Z,6.70
2023-03-14T06:31:21.147Z,5.70
2023-03-14T06:33:33.781Z,5.10
2023-03-14T06:35:46.355Z,4.10
2023-03-14T06:37:58.894Z,7.70
2023-03-14T06:40:17.730Z,8.70
2023-03-14T06:42:30.328Z,9.90
2023-03-14T06:44:42.896Z,11.70
2023-03-14T06:46:55.458Z,8.30
2023-03-14T06:49:08.128Z,5.60
2023-03-14T06:51:20.781Z,6.60
2023-03-14T06:53:33.574Z,9.10
2023-03-14T06:55:46.688Z,9.20
2023-03-14T06:57:59.363Z,6.40
2023-03-14T07:00:13.741Z,5.70
2023-03-14T07:02:39.747Z,6.10
2023-03-14T07:04:54.767Z,4.50
2023-03-14T07:07:07.735Z,4.00
2023-03-14T07:09:20.541Z,4.00
2023-03-14T07:11:33.062Z,3.70
2023-03-14T07:13:45.648Z,3.70
2023-03-14T07:15:58.223Z,4.20
2023-03-14T07:18:10.787Z,3.90
2023-03-14T07:20:24.317Z,4.30
2023-03-14T07:22:36.870Z,12.20
2023-03-14T07:24:49.395Z,6.30
2023-03-14T07:27:01.950Z,9.70
2023-03-14T07:29:14.439Z,11.30
2023-03-14T07:31:27.048Z,6.10
2023-03-14T07:33:39.721Z,11.20
2023-03-14T07:35:52.358Z,6.50
2023-03-14T07:38:05.374Z,6.10
2023-03-14T07:40:18.101Z,5.70
2023-03-14T07:42:30.990Z,9.70
2023-03-14T07:44:43.557Z,4.40
2023-03-14T07:46:56.462Z,8.00
2023-03-14T07:49:09.049Z,6.30
2023-03-14T07:51:21.578Z,5.20
2023-03-14T07:53:34.204Z,5.00
2023-03-14T07:55:46.969Z,4.70
2023-03-14T07:57:59.600Z,3.90
2023-03-14T08:00:14.787Z,5.40
2023-03-14T08:02:28.382Z,6.80
2023-03-14T08:04:41.194Z,4.30
2023-03-14T08:06:55.291Z,7.50
2023-03-14T08:09:07.918Z,4.00
2023-03-14T08:11:20.477Z,6.20
2023-03-14T08:13:33.473Z,5.60
2023-03-14T08:15:49.892Z,5.00
2023-03-14T08:18:02.473Z,7.80
2023-03-14T08:20:15.350Z,8.10
2023-03-14T08:22:27.883Z,8.50
2023-03-14T08:24:40.462Z,4.90
2023-03-14T08:26:52.941Z,4.10
2023-03-14T08:29:05.697Z,9.10
2023-03-14T08:31:18.588Z,5.10
2023-03-14T08:33:31.481Z,4.60
2023-03-14T08:35:44.152Z,6.80
2023-03-14T08:37:56.779Z,8.10
2023-03-14T08:40:11.308Z,7.00
2023-03-14T08:42:23.933Z,5.30
2023-03-14T08:44:36.473Z,3.80
2023-03-14T08:46:49.188Z,7.60
2023-03-14T08:49:01.898Z,3.90
2023-03-14T08:51:15.576Z,7.20
2023-03-14T08:53:28.094Z,7.80
2023-03-14T08:55:40.630Z,6.10
2023-03-14T08:57:53.276Z,8.50
2023-03-14T09:00:11.410Z,5.90
2023-03-14T09:02:25.208Z,4.40
2023-03-14T09:04:37.882Z,5.00
2023-03-14T09:06:50.455Z,7.70
2023-03-14T09:09:03.537Z,4.50
2023-03-14T09:11:16.409Z,3.70
2023-03-14T09:13:28.967Z,5.60
2023-03-14T09:15:43.280Z,4.20
2023-03-14T09:17:55.985Z,5.60
2023-03-14T09:20:09.899Z,6.10
2023-03-14T09:22:22.615Z,9.00
2023-03-14T09:24:35.158Z,8.00
2023-03-14T09:26:47.900Z,6.00
2023-03-14T09:29:00.452Z,3.80
2023-03-14T09:31:14.538Z,10.30
2023-03-14T09:33:27.407Z,7.10
2023-03-14T09:35:39.966Z,7.00
2023-03-14T09:37:52.645Z,5.00
2023-03-14T09:40:11.308Z,3.30
2023-03-14T09:42:27.521Z,5.00
2023-03-14T09:44:47.376Z,5.40
2023-03-14T09:47:05.199Z,4.30
2023-03-14T09:49:23.008Z,3.40
2023-03-14T09:51:35.606Z,4.20
2023-03-14T09:53:49.901Z,3.40
2023-03-14T09:56:02.545Z,4.00
2023-03-14T09:58:21.796Z,3.90
2023-03-14T10:00:34.387Z,4.20
2023-03-14T10:02:56.610Z,5.40
2023-03-14T10:05:16.834Z,5.00
2023-03-14T10:07:32.964Z,3.60
2023-03-14T10:09:48.956Z,3.50
2023-03-14T10:12:02.402Z,5.10
2023-03-14T10:14:33.684Z,10.10
2023-03-14T10:16:47.073Z,10.50
2023-03-14T10:19:08.643Z,11.60
2023-03-14T10:21:29.695Z,10.80
2023-03-14T10:23:42.255Z,15.20
2023-03-14T10:26:13.047Z,6.30
2023-03-14T10:28:31.857Z,3.90
2023-03-14T10:30:46.575Z,3.90
2023-03-14T10:33:09.317Z,3.80
2023-03-14T10:35:23.884Z,3.90
2023-03-14T10:37:36.925Z,3.70
2023-03-14T10:39:56.334Z,3.80
2023-03-14T10:42:25.192Z,3.80
2023-03-14T10:44:39.699Z,3.80
2023-03-14T10:47:01.761Z,3.90
2023-03-14T10:49:29.601Z,3.20
2023-03-14T10:51:42.124Z,3.30
2023-03-14T10:54:04.370Z,3.50
2023-03-14T10:56:22.569Z,3.40
2023-03-14T10:58:41.135Z,3.10
2023-03-14T11:01:13.310Z,3.30
2023-03-14T11:03:29.230Z,2.90
2023-03-14T11:06:05.163Z,3.00
2023-03-14T11:08:56.123Z,2.70
2023-03-14T11:11:17.510Z,3.20
2023-03-14T11:13:29.969Z,3.70
2023-03-14T11:16:07.480Z,3.60
2023-03-14T11:18:41.032Z,3.20
2023-03-14T11:21:29.751Z,3.00
2023-03-14T11:23:57.544Z,3.30
2023-03-14T11:26:41.217Z,3.40
2023-03-14T11:29:12.751Z,2.70
2023-03-14T11:31:30.783Z,3.20
2023-03-14T11:34:06.338Z,4.70
2023-03-14T11:36:26.666Z,6.30
2023-03-14T11:38:56.142Z,3.80
2023-03-14T11:41:17.601Z,3.90
2023-03-14T11:43:35.996Z,3.80
2023-03-14T11:45:50.984Z,2.40
2023-03-14T11:48:22.000Z,2.60
2023-03-14T11:50:36.074Z,2.50
2023-03-14T11:52:55.940Z,2.40
2023-03-14T11:55:18.967Z,2.70
2023-03-14T11:57:31.610Z,2.50
2023-03-14T12:00:15.123Z,3.20
2023-03-14T12:02:30.745Z,2.60
2023-03-14T12:04:49.194Z,2.70
2023-03-14T12:07:15.944Z,2.90
2023-03-14T12:09:30.587Z,2.70
2023-03-14T12:11:53.689Z,2.60
2023-03-14T12:14:21.333Z,2.80
2023-03-14T12:16:40.781Z,2.70
2023-03-14T12:18:54.814Z,2.70
2023-03-14T12:21:10.759Z,2.70
2023-03-14T12:23:25.565Z,2.70
2023-03-14T12:25:38.311Z,2.70
2023-03-14T12:27:56.950Z,2.70
2023-03-14T12:30:40.646Z,2.50
2023-03-14T12:33:11.468Z,3.00
2023-03-14T12:35:40.936Z,2.90
2023-03-14T12:37:56.836Z,3.00
2023-03-14T12:40:10.462Z,3.00
2023-03-14T12:42:52.718Z,3.60
2023-03-14T12:45:25.845Z,3.40
2023-03-14T12:47:38.399Z,3.60
2023-03-14T12:49:54.219Z,3.70
2023-03-14T12:52:15.601Z,4.00
2023-03-14T12:54:46.936Z,3.80
2023-03-14T12:57:16.725Z,3.70
2023-03-14T12:59:33.605Z,3.90
2023-03-14T13:01:54.466Z,3.30
2023-03-14T13:04:12.639Z,4.20
2023-03-14T13:06:48.848Z,5.60
2023-03-14T13:09:27.127Z,5.20
2023-03-14T13:11:42.119Z,4.80
2023-03-14T13:13:59.594Z,4.80
2023-03-14T13:16:17.444Z,4.10
2023-03-14T13:18:52.550Z,4.50
2023-03-14T13:21:20.960Z,4.30
2023-03-14T13:23:37.671Z,4.50
2023-03-14T13:25:50.420Z,4.00
2023-03-14T13:28:04.059Z,4.10
2023-03-14T13:30:24.649Z,5.80
2023-03-14T13:32:43.408Z,6.00
2023-03-14T13:34:59.517Z,5.40
2023-03-14T13:37:23.001Z,3.80
2023-03-14T13:39:35.672Z,3.80
2023-03-14T13:41:49.412Z,3.40
2023-03-14T13:44:07.802Z,3.10
2023-03-14T13:46:24.303Z,3.00
2023-03-14T13:48:44.921Z,3.20
2023-03-14T13:51:07.139Z,2.70
2023-03-14T13:53:20.777Z,2.90
2023-03-14T13:55:34.430Z,3.20
2023-03-14T13:57:56.721Z,3.00
2023-03-14T14:00:24.816Z,2.70
2023-03-14T14:02:39.022Z,2.80
2023-03-14T14:04:52.335Z,2.90
2023-03-14T14:07:11.069Z,2.50
2023-03-14T14:09:32.631Z,2.60
2023-03-14T14:12:15.385Z,2.90
2023-03-14T14:14:41.520Z,3.10
2023-03-14T14:16:54.782Z,3.50
2023-03-14T14:19:08.918Z,3.60
2023-03-14T14:21:22.152Z,3.90
2023-03-14T14:23:37.002Z,3.90
2023-03-14T14:25:50.212Z,4.20
2023-03-14T14:28:35.621Z,3.70
2023-03-14T14:31:06.039Z,3.90
2023-03-14T14:33:21.588Z,4.10
2023-03-14T14:35:36.318Z,3.90
2023-03-14T14:37:49.422Z,3.90
2023-03-14T14:40:17.052Z,3.80
2023-03-14T14:42:32.047Z,3.70
2023-03-14T14:44:46.416Z,3.80
2023-03-14T14:47:00.250Z,3.90
2023-03-14T14:49:20.447Z,4.90
2023-03-14T14:51:39.978Z,5.50
2023-03-14T14:54:04.045Z,5.60
2023-03-14T14:56:20.247Z,4.70
2023-03-14T14:58:40.698Z,5.30
2023-03-14T15:01:16.182Z,4.70
2023-03-14T15:03:30.891Z,4.90
2023-03-14T15:05:43.400Z,5.00
2023-03-14T15:07:55.992Z,4.50
2023-03-14T15:10:13.746Z,4.30
2023-03-14T15:12:26.341Z,4.20
2023-03-14T15:14:39.114Z,4.40
2023-03-14T15:16:51.743Z,4.80
2023-03-14T15:19:23.708Z,5.10
2023-03-14T15:21:36.860Z,5.30
2023-03-14T15:23:49.676Z,3.90
2023-03-14T15:26:03.758Z,3.00
2023-03-14T15:28:23.198Z,2.50
2023-03-14T15:30:35.810Z,2.20
2023-03-14T15:32:48.540Z,2.20
2023-03-14T15:35:01.268Z,2.10
2023-03-14T15:37:16.870Z,2.20
2023-03-14T15:39:29.564Z,2.20
2023-03-14T15:41:42.280Z,2.10
2023-03-14T15:43:55.984Z,2.20
2023-03-14T15:46:10.847Z,2.10
2023-03-14T15:48:23.549Z,2.10
2023-03-14T15:50:36.193Z,2.40
2023-03-14T15:52:49.269Z,2.40
2023-03-14T15:55:01.920Z,2.20
2023-03-14T15:57:14.571Z,2.20
2023-03-14T15:59:27.348Z,2.50
2023-03-14T16:01:40.173Z,2.30
2023-03-14T16:03:53.790Z,2.30
2023-03-14T16:06:07.084Z,2.60
2023-03-14T16:08:19.751Z,2.30
2023-03-14T16:10:33.249Z,2.60
2023-03-14T16:12:46.116Z,2.30
2023-03-14T16:14:58.833Z,2.60
2023-03-14T16:17:13.057Z,2.50
2023-03-14T16:19:27.250Z,2.30
2023-03-14T16:21:39.922Z,2.60
2023-03-14T16:23:52.596Z,2.80
2023-03-14T16:26:08.085Z,3.20
2023-03-14T16:28:20.891Z,2.60
2023-03-14T16:30:33.497Z,2.90
2023-03-14T16:32:48.146Z,2.90
2023-03-14T16:35:01.262Z,3.10
2023-03-14T16:37:14.257Z,3.20
2023-03-14T16:39:29.026Z,3.50
2023-03-14T16:41:42.290Z,3.20
2023-03-14T16:43:56.356Z,3.70
2023-03-14T16:46:14.286Z,3.80
2023-03-14T16:48:28.315Z,3.50
2023-03-14T16:50:41.593Z,3.60
2023-03-14T16:52:55.402Z,3.60
2023-03-14T16:55:08.451Z,3.30
2023-03-14T16:57:21.119Z,3.50
2023-03-14T16:59:33.964Z,3.60
2023-03-14T17:01:46.858Z,3.50
2023-03-14T17:03:59.831Z,3.00
2023-03-14T17:06:19.355Z,3.10
2023-03-14T17:08:35.190Z,3.20
2023-03-14T17:10:47.942Z,3.20
2023-03-14T17:13:01.452Z,2.90
2023-03-14T17:15:14.206Z,2.50
2023-03-14T17:17:26.896Z,2.80
2023-03-14T17:19:39.618Z,2.80
2023-03-14T17:21:57.893Z,2.90
2023-03-14T17:24:11.031Z,2.90
2023-03-14T17:26:23.804Z,3.40
2023-03-14T17:28:39.889Z,3.50
2023-03-14T17:31:02.881Z,3.50
2023-03-14T17:33:16.681Z,3.90
2023-03-14T17:35:29.647Z,2.80
2023-03-14T17:37:42.595Z,3.70
2023-03-14T17:39:55.404Z,3.30
2023-03-14T17:42:08.536Z,4.10
2023-03-14T17:44:22.549Z,4.70
2023-03-14T17:46:38.486Z,4.20
2023-03-14T17:48:51.317Z,3.90
2023-03-14T17:51:07.139Z,4.40
2023-03-14T17:53:19.896Z,4.70
2023-03-14T17:55:32.506Z,3.90
2023-03-14T17:57:45.205Z,3.30
2023-03-14T17:59:58.305Z,3.20
2023-03-14T18:02:11.691Z,3.40
2023-03-14T18:04:24.685Z,4.10
2023-03-14T18:06:37.654Z,5.40
2023-03-14T18:08:51.480Z,6.40
2023-03-14T18:11:06.628Z,6.50
2023-03-14T18:13:19.386Z,7.80
2023-03-14T18:15:34.296Z,6.50
2023-03-14T18:17:47.288Z,6.00
2023-03-14T18:20:00.160Z,5.40
2023-03-14T18:22:13.052Z,5.00
2023-03-14T18:24:27.763Z,4.50
2023-03-14T18:26:42.832Z,3.90
2023-03-14T18:28:55.562Z,3.20
2023-03-14T18:31:11.175Z,3.40
2023-03-14T18:33:23.981Z,3.20
2023-03-14T18:35:39.915Z,3.40
2023-03-14T18:37:52.640Z,3.40
2023-03-14T18:40:08.868Z,3.60
2023-03-14T18:42:21.635Z,4.00
2023-03-14T18:44:34.294Z,4.00
2023-03-14T18:46:48.530Z,3.40
2023-03-14T18:49:04.205Z,3.30
2023-03-14T18:51:17.719Z,3.30
2023-03-14T18:53:33.486Z,3.10
2023-03-14T18:55:49.020Z,3.50
2023-03-14T18:58:01.946Z,3.30
2023-03-14T19:00:15.515Z,3.30
2023-03-14T19:02:31.470Z,4.10
2023-03-14T19:04:44.490Z,4.20
2023-03-14T19:06:57.979Z,5.90
2023-03-14T19:09:15.274Z,5.60
2023-03-14T19:11:28.304Z,5.10
2023-03-14T19:13:42.226Z,5.70
2023-03-14T19:15:54.932Z,5.10
2023-03-14T19:18:10.814Z,4.50
2023-03-14T19:20:24.553Z,4.90
2023-03-14T19:22:37.280Z,4.20
2023-03-14T19:24:49.943Z,4.40
2023-03-14T19:27:02.740Z,7.60
2023-03-14T19:29:16.477Z,4.90
2023-03-14T19:31:29.254Z,4.20
2023-03-14T19:33:42.604Z,3.50
2023-03-14T19:35:55.387Z,4.30
2023-03-14T19:38:08.229Z,5.10
2023-03-14T19:40:21.022Z,4.60
2023-03-14T19:42:33.783Z,4.30
2023-03-14T19:44:46.518Z,4.60
2023-03-14T19:46:59.341Z,3.90
2023-03-14T19:49:12.009Z,2.80
2023-03-14T19:51:24.772Z,1.50
2023-03-14T19:53:37.911Z,1.10
2023-03-14T19:55:51.593Z,1.10
2023-03-14T19:58:05.450Z,1.10
2023-03-14T20:00:19.567Z,1.30
2023-03-14T20:02:32.288Z,1.00
2023-03-14T20:04:46.655Z,1.20
2023-03-14T20:06:59.423Z,1.50
2023-03-14T20:09:12.218Z,1.30
2023-03-14T20:11:25.251Z,1.10
2023-03-14T20:13:44.820Z,0.80
2023-03-14T20:15:57.937Z,0.60
2023-03-14T20:18:10.491Z,0.90
2023-03-14T20:20:23.162Z,0.80
2023-03-14T20:22:38.248Z,0.90
2023-03-14T20:24:52.563Z,0.80
2023-03-14T20:27:05.262Z,0.60
2023-03-14T20:29:17.842Z,0.50
2023-03-14T20:31:30.553Z,0.60
2023-03-14T20:33:45.370Z,0.80
2023-03-14T20:35:59.744Z,0.70
2023-03-14T20:38:12.521Z,0.60
2023-03-14T20:40:28.558Z,0.70
2023-03-14T20:42:41.145Z,0.60
2023-03-14T20:44:54.528Z,0.80
2023-03-14T20:47:07.182Z,0.80
2023-03-14T20:49:19.798Z,0.80
2023-03-14T20:51:33.196Z,0.80
2023-03-14T20:53:45.809Z,0.70
2023-03-14T20:55:58.915Z,1.00
2023-03-14T20:58:15.152Z,0.70
2023-03-14T21:00:27.744Z,0.80
2023-03-14T21:02:41.912Z,0.70
2023-03-14T21:04:57.404Z,0.80
2023-03-14T21:07:12.240Z,0.80
2023-03-14T21:09:25.648Z,0.80
2023-03-14T21:11:41.161Z,0.90
2023-03-14T21:13:53.728Z,1.20
2023-03-14T21:16:06.925Z,1.60
2023-03-14T21:18:23.064Z,1.10
2023-03-14T21:20:42.256Z,1.40
2023-03-14T21:22:54.883Z,1.10
2023-03-14T21:25:07.769Z,1.80
2023-03-14T21:27:21.431Z,1.50
2023-03-14T21:29:37.089Z,1.50
2023-03-14T21:31:50.700Z,2.20
2023-03-14T21:34:03.233Z,1.50
2023-03-14T21:36:16.644Z,1.20
2023-03-14T21:38:29.225Z,1.50
2023-03-14T21:40:41.822Z,1.20
2023-03-14T21:42:55.439Z,1.30
2023-03-14T21:45:08.762Z,2.00
2023-03-14T21:47:23.435Z,1.30
2023-03-14T21:49:38.613Z,1.80
2023-03-14T21:51:52.339Z,1.80
2023-03-14T21:54:10.080Z,2.10
2023-03-14T21:56:26.923Z,1.80
2023-03-14T21:58:40.818Z,1.60
2023-03-14T22:00:54.443Z,1.70
2023-03-14T22:03:13.203Z,1.60
2023-03-14T22:05:26.165Z,1.90
2023-03-14T22:07:41.208Z,1.80
2023-03-14T22:09:54.861Z,2.20
2023-03-14T22:12:07.931Z,2.30
2023-03-14T22:14:20.806Z,2.40
2023-03-14T22:16:33.530Z,3.00
2023-03-14T22:18:46.194Z,1.90
2023-03-14T22:20:58.842Z,2.20
2023-03-14T22:23:12.110Z,2.20
2023-03-14T22:25:24.659Z,2.20
2023-03-14T22:27:37.233Z,2.80
2023-03-14T22:29:49.855Z,1.70
2023-03-14T22:32:02.421Z,2.70
2023-03-14T22:34:15.063Z,2.30
2023-03-14T22:36:27.658Z,2.10
2023-03-14T22:38:40.232Z,2.80
2023-03-14T22:40:52.978Z,2.40
2023-03-14T22:43:05.601Z,1.80
2023-03-14T22:45:18.206Z,2.20
2023-03-14T22:47:30.909Z,3.80
2023-03-14T22:49:43.537Z,2.70
2023-03-14T22:51:56.136Z,2.40
2023-03-14T22:54:09.175Z,2.70
2023-03-14T22:56:21.849Z,2.60
2023-03-14T22:58:35.582Z,2.90
2023-03-14T23:00:48.169Z,2.70
2023-03-14T23:03:01.033Z,2.90
2023-03-14T23:05:13.999Z,2.40
2023-03-14T23:07:26.565Z,2.60
2023-03-14T23:09:39.913Z,2.60
2023-03-14T23:11:52.505Z,3.30
2023-03-14T23:14:05.142Z,2.90
2023-03-14T23:16:19.855Z,3.20
2023-03-14T23:18:34.678Z,3.20
2023-03-14T23:20:48.374Z,2.90
2023-03-14T23:23:00.983Z,2.90
2023-03-14T23:25:13.545Z,2.60
2023-03-14T23:27:26.255Z,2.70
2023-03-14T23:29:38.856Z,2.80
2023-03-14T23:31:51.434Z,2.60
2023-03-14T23:34:03.959Z,2.40
2023-03-14T23:36:18.396Z,2.60
2023-03-14T23:38:32.597Z,2.70
2023-03-14T23:40:45.267Z,2.60
2023-03-14T23:42:57.846Z,2.60
2023-03-14T23:45:16.214Z,2.40
2023-03-14T23:47:29.263Z,2.80
2023-03-14T23:49:41.907Z,2.60
2023-03-14T23:51:54.535Z,2.50
2023-03-14T23:54:07.051Z,2.40
2023-03-14T23:56:19.776Z,2.80
2023-03-14T23:58:36.079Z,2.40
